Time;durP1;ratioP1;P1;durP2;ratioP2;P2;SDS_P1;SDS_P2;PMS_P1;PMS_P2;Temp;Humidity;BMP_temperature;BMP_pressure;BME280_temperature;BME280_humidity;BME280_pressure;Samples;Min_cycle;Max_cycle;Signal;HPM_P1;HPM_P2
2022/12/04 00:00:39;;;;;;;;;;;18.90;60.40;;;;;;5039809;28;1434;-69
2022/12/04 00:03:04;;;;;;;;;;;18.90;60.50;;;;;;5059960;28;1965;-70
2022/12/04 00:05:30;;;;;;;;;;;18.90;60.50;;;;;;5043957;28;849;-70
2022/12/04 00:07:55;;;;;;;;;;;18.90;61.20;;;;;;5054177;28;819;-69
2022/12/04 00:10:21;;;;;;;;;;;18.90;60.50;;;;;;5059811;28;1366;-70
2022/12/04 00:12:46;;;;;;;;;;;18.90;60.50;;;;;;5040189;28;1287;-70
2022/12/04 00:15:12;;;;;;;;;;;18.90;60.50;;;;;;5060307;28;1017;-70
2022/12/04 00:17:37;;;;;;;;;;;18.80;60.50;;;;;;5057745;28;1166;-70
2022/12/04 00:20:03;;;;;;;;;;;18.90;60.50;;;;;;5059015;28;1338;-70
2022/12/04 00:22:28;;;;;;;;;;;18.90;60.50;;;;;;5061562;28;1882;-70
2022/12/04 00:24:54;;;;;;;;;;;18.80;60.50;;;;;;5059557;28;917;-70
2022/12/04 00:27:19;;;;;;;;;;;18.80;60.50;;;;;;5057841;28;1065;-70
2022/12/04 00:29:44;;;;;;;;;;;18.80;60.50;;;;;;5056116;28;1353;-70
2022/12/04 00:32:10;;;;;;;;;;;18.80;60.50;;;;;;5056793;28;792;-70
2022/12/04 00:34:35;;;;;;;;;;;18.80;60.60;;;;;;5061305;28;888;-70
2022/12/04 00:37:01;;;;;;;;;;;18.80;60.50;;;;;;5055610;28;802;-70
2022/12/04 00:39:26;;;;;;;;;;;18.80;60.60;;;;;;5058840;28;1243;-70
2022/12/04 00:41:52;;;;;;;;;;;18.80;60.60;;;;;;5057719;28;1901;-70
2022/12/04 00:44:17;;;;;;;;;;;18.80;60.60;;;;;;5060128;28;829;-70
2022/12/04 00:46:43;;;;;;;;;;;18.80;60.60;;;;;;5056881;28;888;-70
2022/12/04 00:49:08;;;;;;;;;;;18.80;60.60;;;;;;5062047;28;1260;-70
2022/12/04 00:51:33;;;;;;;;;;;18.80;60.60;;;;;;5060041;28;981;-70
2022/12/04 00:53:59;;;;;;;;;;;18.80;60.60;;;;;;5061464;28;831;-70
2022/12/04 00:56:25;;;;;;;;;;;18.80;60.60;;;;;;5063537;28;941;-70
2022/12/04 00:58:51;;;;;;;;;;;18.80;60.70;;;;;;5040933;28;1351;-70
2022/12/04 01:01:17;;;;;;;;;;;18.80;60.70;;;;;;5063517;28;1913;-70
2022/12/04 01:03:43;;;;;;;;;;;18.80;60.70;;;;;;5046385;28;882;-70
2022/12/04 01:06:21;;;;;;;;;;;18.80;60.70;;;;;;5041511;28;824;-70
2022/12/04 01:08:47;;;;;;;;;;;18.80;60.70;;;;;;5041733;28;1310;-70
2022/12/04 01:11:13;;;;;;;;;;;18.80;60.70;;;;;;5066187;28;934;-70
2022/12/04 01:13:38;;;;;;;;;;;18.80;60.70;;;;;;5064902;28;1189;-70
2022/12/04 01:16:04;;;;;;;;;;;18.80;60.70;;;;;;5062136;28;870;-70
2022/12/04 01:18:29;;;;;;;;;;;18.80;60.70;;;;;;5062474;28;1392;-70
2022/12/04 01:20:55;;;;;;;;;;;18.80;60.70;;;;;;5061639;28;2394;-70
2022/12/04 01:23:20;;;;;;;;;;;18.80;60.80;;;;;;5057278;28;911;-69
2022/12/04 01:25:49;;;;;;;;;;;18.80;60.80;;;;;;5063883;28;928;-69
2022/12/04 01:28:15;;;;;;;;;;;18.80;60.80;;;;;;5058755;28;801;-69
2022/12/04 01:30:40;;;;;;;;;;;18.80;60.80;;;;;;5059810;28;1229;-70
2022/12/04 01:33:06;;;;;;;;;;;18.80;60.70;;;;;;5061239;28;1058;-70
2022/12/04 01:35:31;;;;;;;;;;;18.80;60.70;;;;;;5059972;28;837;-69
2022/12/04 01:37:57;;;;;;;;;;;18.80;60.70;;;;;;5058329;28;1161;-70
2022/12/04 01:40:22;;;;;;;;;;;18.80;60.70;;;;;;5062835;28;1315;-69
2022/12/04 01:42:48;;;;;;;;;;;18.80;60.70;;;;;;5060713;28;1906;-69
2022/12/04 01:45:32;;;;;;;;;;;18.80;60.70;;;;;;5062430;28;884;-69
2022/12/04 01:47:58;;;;;;;;;;;18.80;61.40;;;;;;5060886;28;1046;-69
2022/12/04 01:50:24;;;;;;;;;;;18.80;60.60;;;;;;5040566;28;1375;-69
2022/12/04 01:52:49;;;;;;;;;;;18.80;60.60;;;;;;5059479;28;919;-70
2022/12/04 01:55:15;;;;;;;;;;;18.80;60.60;;;;;;5034996;28;995;-70
2022/12/04 01:57:41;;;;;;;;;;;18.80;60.60;;;;;;5059662;28;927;-70
2022/12/04 02:00:13;;;;;;;;;;;18.80;60.60;;;;;;5059517;28;1353;-69
2022/12/04 02:02:40;;;;;;;;;;;18.80;60.60;;;;;;5042047;28;1910;-69
2022/12/04 02:05:06;;;;;;;;;;;18.80;60.60;;;;;;5041812;28;794;-70
2022/12/04 02:07:31;;;;;;;;;;;18.80;60.60;;;;;;5041113;28;1089;-70
2022/12/04 02:10:02;;;;;;;;;;;18.80;60.60;;;;;;5059464;28;1260;-70
2022/12/04 02:12:33;;;;;;;;;;;18.80;60.60;;;;;;5061878;28;1300;-70
2022/12/04 02:15:07;;;;;;;;;;;18.80;60.60;;;;;;5062584;28;1170;-70
2022/12/04 02:17:33;;;;;;;;;;;18.80;60.60;;;;;;5042271;28;903;-70
2022/12/04 02:19:58;;;;;;;;;;;18.80;60.60;;;;;;5061078;28;1359;-69
2022/12/04 02:22:43;;;;;;;;;;;18.80;60.60;;;;;;5052145;28;1922;-70
2022/12/04 02:25:17;;;;;;;;;;;18.80;60.60;;;;;;5059778;28;959;-70
2022/12/04 02:27:47;;;;;;;;;;;18.80;60.60;;;;;;5057722;28;1543;-70
2022/12/04 02:30:13;;;;;;;;;;;18.80;60.60;;;;;;5044648;28;1267;-69
2022/12/04 02:32:38;;;;;;;;;;;18.80;60.60;;;;;;5041071;28;808;-70
2022/12/04 02:35:04;;;;;;;;;;;18.80;60.70;;;;;;5059658;28;1327;-69
2022/12/04 02:37:31;;;;;;;;;;;18.80;60.70;;;;;;5056408;28;821;-70
2022/12/04 02:40:02;;;;;;;;;;;18.80;60.70;;;;;;5059446;28;1326;-70
2022/12/04 02:42:27;;;;;;;;;;;18.80;60.70;;;;;;5042533;28;1971;-70
2022/12/04 02:44:56;;;;;;;;;;;18.80;60.70;;;;;;5059340;28;871;-70
2022/12/04 02:47:22;;;;;;;;;;;18.80;60.70;;;;;;5049864;28;918;-69
2022/12/04 02:49:55;;;;;;;;;;;18.80;60.70;;;;;;5040490;28;1320;-69
2022/12/04 02:52:21;;;;;;;;;;;18.80;60.70;;;;;;5052205;28;1230;-70
2022/12/04 02:54:49;;;;;;;;;;;18.80;60.70;;;;;;5041100;28;950;-70
2022/12/04 02:57:15;;;;;;;;;;;18.80;60.80;;;;;;5043232;28;871;-69
2022/12/04 02:59:41;;;;;;;;;;;18.80;60.70;;;;;;5040360;28;1341;-69
2022/12/04 03:02:08;;;;;;;;;;;18.70;60.70;;;;;;5059426;28;1902;-70
2022/12/04 03:04:33;;;;;;;;;;;18.70;60.70;;;;;;5058833;28;975;-70
2022/12/04 03:07:06;;;;;;;;;;;18.80;60.80;;;;;;5059815;28;863;-70
2022/12/04 03:09:40;;;;;;;;;;;18.70;60.70;;;;;;5043141;28;1275;-69
2022/12/04 03:12:09;;;;;;;;;;;18.70;60.70;;;;;;5060110;28;900;-69
2022/12/04 03:14:35;;;;;;;;;;;18.70;60.70;;;;;;5057604;28;1048;-70
2022/12/04 03:17:02;;;;;;;;;;;18.70;61.50;;;;;;5049562;28;1125;-70
2022/12/04 03:19:28;;;;;;;;;;;18.80;60.70;;;;;;5058872;28;1307;-68
2022/12/04 03:21:55;;;;;;;;;;;18.80;60.80;;;;;;5040520;28;1917;-67
2022/12/04 03:24:25;;;;;;;;;;;18.80;60.80;;;;;;5041086;28;975;-67
2022/12/04 03:26:55;;;;;;;;;;;18.80;60.70;;;;;;5039626;28;887;-68
2022/12/04 03:29:21;;;;;;;;;;;18.80;60.70;;;;;;5058893;28;1284;-68
2022/12/04 03:31:49;;;;;;;;;;;18.80;60.70;;;;;;5046643;28;1112;-68
2022/12/04 03:34:16;;;;;;;;;;;18.80;60.70;;;;;;5055873;28;915;-68
2022/12/04 03:36:55;;;;;;;;;;;18.80;60.60;;;;;;5044347;28;853;-69
2022/12/04 03:39:22;;;;;;;;;;;18.80;61.40;;;;;;5042889;28;1395;-68
2022/12/04 03:41:47;;;;;;;;;;;18.80;60.60;;;;;;5044908;28;1902;-68
2022/12/04 03:44:35;;;;;;;;;;;18.80;60.60;;;;;;5060364;28;844;-68
2022/12/04 03:47:03;;;;;;;;;;;18.80;60.60;;;;;;5021456;28;1208;-69
2022/12/04 03:49:35;;;;;;;;;;;18.80;60.60;;;;;;5056332;28;1282;-69
2022/12/04 03:52:02;;;;;;;;;;;18.80;60.60;;;;;;5062208;28;1087;-70
2022/12/04 03:54:29;;;;;;;;;;;18.80;60.60;;;;;;5039446;28;1013;-70
2022/12/04 03:56:56;;;;;;;;;;;18.80;60.60;;;;;;5039611;28;896;-69
2022/12/04 03:59:29;;;;;;;;;;;18.80;60.70;;;;;;5043007;28;1288;-70
2022/12/04 04:01:55;;;;;;;;;;;18.80;60.70;;;;;;5058589;28;1975;-70
2022/12/04 04:04:21;;;;;;;;;;;18.80;60.70;;;;;;5037363;28;855;-70
2022/12/04 04:06:54;;;;;;;;;;;18.80;60.70;;;;;;5040427;28;914;-69
2022/12/04 04:09:21;;;;;;;;;;;18.80;60.70;;;;;;5049538;28;1323;-70
2022/12/04 04:11:48;;;;;;;;;;;18.70;60.70;;;;;;5041189;28;974;-70
2022/12/04 04:25:19;;;;;;;;;;;18.70;60.70;;;;;;5054000;28;769;-69
2022/12/04 04:27:54;;;;;;;;;;;18.70;60.70;;;;;;5041795;28;1115;-69
2022/12/04 04:30:19;;;;;;;;;;;18.70;60.70;;;;;;5049574;28;1257;-70
2022/12/04 04:32:58;;;;;;;;;;;18.70;60.70;;;;;;5050988;28;1082;-69
2022/12/04 04:35:44;;;;;;;;;;;18.70;60.70;;;;;;5047018;28;870;-70
2022/12/04 04:38:24;;;;;;;;;;;18.70;60.80;;;;;;5051398;28;1222;-69
2022/12/04 04:40:50;;;;;;;;;;;18.70;60.70;;;;;;5065185;28;840;-69
2022/12/04 04:43:45;;;;;;;;;;;18.70;60.70;;;;;;5063653;28;1993;-68
2022/12/04 04:46:12;;;;;;;;;;;18.70;60.70;;;;;;4995676;28;1174;-69
2022/12/04 04:48:38;;;;;;;;;;;18.70;60.70;;;;;;5046047;28;1374;-69
2022/12/04 04:51:04;;;;;;;;;;;18.70;60.70;;;;;;5041759;28;1091;-70
2022/12/04 04:53:30;;;;;;;;;;;18.70;60.70;;;;;;5048426;28;781;-70
2022/12/04 04:55:56;;;;;;;;;;;18.70;60.70;;;;;;5046517;28;1005;-70
2022/12/04 04:58:21;;;;;;;;;;;18.70;60.70;;;;;;5041599;28;1280;-70
2022/12/04 05:00:49;;;;;;;;;;;18.70;60.60;;;;;;5064685;28;879;-70
2022/12/04 05:03:15;;;;;;;;;;;18.70;60.70;;;;;;5055631;28;1902;-71
2022/12/04 05:05:40;;;;;;;;;;;18.70;60.60;;;;;;5062253;28;915;-70
2022/12/04 05:08:06;;;;;;;;;;;18.80;60.70;;;;;;5064242;28;1014;-70
2022/12/04 05:10:31;;;;;;;;;;;18.80;60.70;;;;;;5065320;28;1262;-70
2022/12/04 05:12:57;;;;;;;;;;;18.70;60.60;;;;;;5064013;28;1048;-70
2022/12/04 05:15:22;;;;;;;;;;;18.80;60.60;;;;;;5064077;28;1292;-70
2022/12/04 05:17:47;;;;;;;;;;;18.80;60.60;;;;;;5065000;28;1034;-70
2022/12/04 05:20:13;;;;;;;;;;;18.80;60.50;;;;;;5065618;28;1236;-70
2022/12/04 05:22:38;;;;;;;;;;;18.80;60.50;;;;;;5062374;28;1938;-70
2022/12/04 05:25:04;;;;;;;;;;;18.80;60.40;;;;;;5066039;28;871;-70
2022/12/04 05:27:29;;;;;;;;;;;18.80;60.30;;;;;;5062832;28;789;-70
2022/12/04 05:29:55;;;;;;;;;;;18.90;60.30;;;;;;5064156;28;1254;-70
2022/12/04 05:32:22;;;;;;;;;;;18.90;60.20;;;;;;5063963;28;825;-70
2022/12/04 05:34:47;;;;;;;;;;;18.90;60.10;;;;;;5056687;28;1288;-70
2022/12/04 05:37:13;;;;;;;;;;;18.90;60.00;;;;;;5064722;28;923;-70
2022/12/04 05:39:38;;;;;;;;;;;18.90;59.90;;;;;;5058363;28;1345;-70
2022/12/04 05:42:04;;;;;;;;;;;19.00;60.00;;;;;;5060371;28;1898;-69
2022/12/04 05:44:29;;;;;;;;;;;19.00;60.00;;;;;;5057878;28;864;-69
2022/12/04 05:46:55;;;;;;;;;;;19.00;59.90;;;;;;5056957;28;829;-70
2022/12/04 05:49:20;;;;;;;;;;;19.00;59.80;;;;;;5044798;28;1268;-69
2022/12/04 05:51:45;;;;;;;;;;;19.00;59.80;;;;;;5058617;28;1376;-70
2022/12/04 05:54:11;;;;;;;;;;;19.00;59.80;;;;;;5060781;28;1195;-70
2022/12/04 05:56:36;;;;;;;;;;;19.00;59.70;;;;;;5060500;28;835;-69
2022/12/04 05:59:02;;;;;;;;;;;19.00;59.70;;;;;;5059511;28;1342;-69
2022/12/04 06:01:27;;;;;;;;;;;19.00;59.70;;;;;;5063053;28;1927;-70
2022/12/04 06:03:53;;;;;;;;;;;19.10;59.70;;;;;;5058958;28;852;-70
2022/12/04 06:06:19;;;;;;;;;;;19.10;59.70;;;;;;5060046;28;960;-69
2022/12/04 06:08:45;;;;;;;;;;;19.10;59.70;;;;;;5044267;28;1282;-69
2022/12/04 06:11:11;;;;;;;;;;;19.10;59.60;;;;;;5043946;28;1019;-69
2022/12/04 06:13:36;;;;;;;;;;;19.10;59.60;;;;;;5060666;28;1274;-69
2022/12/04 06:16:02;;;;;;;;;;;19.10;59.60;;;;;;5055376;28;1077;-69
2022/12/04 06:18:27;;;;;;;;;;;19.10;59.60;;;;;;5060918;28;1361;-69
2022/12/04 06:20:56;;;;;;;;;;;19.10;59.60;;;;;;5062694;28;875;-70
2022/12/04 06:23:21;;;;;;;;;;;19.10;59.60;;;;;;5057875;28;1973;-70
2022/12/04 06:25:47;;;;;;;;;;;19.10;59.60;;;;;;5039623;28;1010;-70
2022/12/04 06:28:12;;;;;;;;;;;19.10;59.60;;;;;;5060672;28;844;-69
2022/12/04 06:30:38;;;;;;;;;;;19.10;59.70;;;;;;5059895;28;1262;-69
2022/12/04 06:33:03;;;;;;;;;;;19.00;59.60;;;;;;5060721;28;923;-69
2022/12/04 06:35:29;;;;;;;;;;;19.10;59.70;;;;;;5058541;28;914;-69
2022/12/04 06:37:54;;;;;;;;;;;19.10;59.80;;;;;;5060491;28;934;-69
2022/12/04 06:40:19;;;;;;;;;;;19.10;59.70;;;;;;5053283;28;1343;-69
2022/12/04 06:42:45;;;;;;;;;;;19.20;59.50;;;;;;5054891;28;1946;-69
2022/12/04 06:45:10;;;;;;;;;;;19.30;59.40;;;;;;5059805;28;886;-69
2022/12/04 06:47:36;;;;;;;;;;;19.40;59.40;;;;;;5061233;28;812;-69
2022/12/04 06:50:02;;;;;;;;;;;19.50;59.30;;;;;;5061410;28;1338;-69
2022/12/04 06:52:27;;;;;;;;;;;19.70;59.10;;;;;;5057753;28;855;-69
2022/12/04 06:54:53;;;;;;;;;;;19.80;58.80;;;;;;5060941;28;941;-69
2022/12/04 06:57:18;;;;;;;;;;;19.90;58.60;;;;;;5060382;28;935;-69
2022/12/04 06:59:44;;;;;;;;;;;20.00;58.40;;;;;;5058136;28;1367;-69
2022/12/04 07:02:09;;;;;;;;;;;20.10;58.20;;;;;;5061039;28;1910;-69
2022/12/04 07:04:35;;;;;;;;;;;20.20;58.00;;;;;;5057593;28;981;-69
2022/12/04 07:07:00;;;;;;;;;;;20.30;57.80;;;;;;5057617;28;864;-69
2022/12/04 07:09:26;;;;;;;;;;;20.40;57.60;;;;;;5054983;28;1279;-69
2022/12/04 07:11:53;;;;;;;;;;;20.40;57.50;;;;;;5059139;28;1310;-69
2022/12/04 07:14:19;;;;;;;;;;;20.50;57.30;;;;;;5061518;28;1287;-69
2022/12/04 07:16:44;;;;;;;;;;;20.50;57.20;;;;;;5059841;28;934;-69
2022/12/04 07:19:10;;;;;;;;;;;20.50;57.10;;;;;;5060712;28;1264;-69
2022/12/04 07:21:35;;;;;;;;;;;20.60;57.00;;;;;;5057929;28;1894;-69
2022/12/04 07:24:01;;;;;;;;;;;20.60;57.00;;;;;;5058165;28;891;-69
2022/12/04 07:26:27;;;;;;;;;;;20.60;57.00;;;;;;5057245;28;863;-69
2022/12/04 07:28:52;;;;;;;;;;;20.60;57.00;;;;;;5037955;28;1302;-69
2022/12/04 07:31:19;;;;;;;;;;;20.60;57.00;;;;;;5048688;28;943;-68
2022/12/04 07:33:44;;;;;;;;;;;20.60;57.00;;;;;;5060114;28;860;-68
2022/12/04 07:36:11;;;;;;;;;;;20.60;57.00;;;;;;5057926;28;863;-66
2022/12/04 07:38:36;;;;;;;;;;;20.60;56.90;;;;;;5040321;28;1428;-68
2022/12/04 07:41:02;;;;;;;;;;;20.50;52.30;;;;;;5040824;28;798;-68
2022/12/04 07:43:27;;;;;;;;;;;20.40;51.50;;;;;;5040329;28;1019;-68
2022/12/04 07:45:53;;;;;;;;;;;20.40;52.10;;;;;;5036706;28;891;-68
2022/12/04 07:48:18;;;;;;;;;;;20.40;52.80;;;;;;5059969;28;1014;-68
2022/12/04 07:50:44;;;;;;;;;;;20.40;53.10;;;;;;5056543;28;1239;-69
2022/12/04 07:53:09;;;;;;;;;;;20.40;53.30;;;;;;5058124;28;962;-69
2022/12/04 07:55:35;;;;;;;;;;;20.40;53.70;;;;;;5056619;28;904;-69
2022/12/04 07:58:00;;;;;;;;;;;20.40;53.90;;;;;;5059742;28;1371;-68
2022/12/04 08:00:26;;;;;;;;;;;20.40;54.10;;;;;;5039607;28;1276;-69
2022/12/04 08:02:51;;;;;;;;;;;20.40;54.20;;;;;;5055757;28;1965;-69
2022/12/04 08:05:17;;;;;;;;;;;20.40;54.70;;;;;;5058681;28;1413;-68
2022/12/04 08:07:42;;;;;;;;;;;20.40;55.30;;;;;;5059817;28;898;-69
2022/12/04 08:10:08;;;;;;;;;;;20.40;55.50;;;;;;5059878;28;1231;-68
2022/12/04 08:12:33;;;;;;;;;;;20.40;55.90;;;;;;5058663;28;1051;-68
2022/12/04 08:14:59;;;;;;;;;;;20.40;56.00;;;;;;5056016;28;1319;-69
2022/12/04 08:17:24;;;;;;;;;;;20.50;56.10;;;;;;5047627;28;833;-69
2022/12/04 08:19:50;;;;;;;;;;;20.50;56.20;;;;;;5040155;28;1274;-69
2022/12/04 08:22:15;;;;;;;;;;;20.50;56.30;;;;;;5057708;28;1941;-69
2022/12/04 08:24:41;;;;;;;;;;;20.50;56.40;;;;;;5056383;28;867;-69
2022/12/04 08:27:06;;;;;;;;;;;20.50;56.50;;;;;;5059379;28;802;-68
2022/12/04 08:29:31;;;;;;;;;;;20.60;56.70;;;;;;5057212;28;1222;-69
2022/12/04 08:31:57;;;;;;;;;;;20.50;56.60;;;;;;5057082;28;1042;-69
2022/12/04 08:34:22;;;;;;;;;;;20.50;56.90;;;;;;5056212;28;840;-68
2022/12/04 08:36:48;;;;;;;;;;;20.50;57.10;;;;;;5054320;28;808;-69
2022/12/04 08:39:13;;;;;;;;;;;20.50;57.30;;;;;;5056104;28;1268;-68
2022/12/04 08:41:39;;;;;;;;;;;20.50;57.70;;;;;;5055288;28;1906;-68
2022/12/04 08:44:05;;;;;;;;;;;20.50;57.40;;;;;;5057706;28;1037;-69
2022/12/04 08:46:30;;;;;;;;;;;20.50;57.60;;;;;;5057277;28;930;-69
2022/12/04 08:48:56;;;;;;;;;;;20.50;57.60;;;;;;5053757;28;1354;-69
2022/12/04 08:51:23;;;;;;;;;;;20.40;57.70;;;;;;5055094;28;1278;-68
2022/12/04 08:53:51;;;;;;;;;;;20.40;57.90;;;;;;5059019;28;879;-69
2022/12/04 08:56:17;;;;;;;;;;;20.40;57.90;;;;;;5061459;28;868;-68
2022/12/04 08:58:42;;;;;;;;;;;20.40;58.00;;;;;;5056829;28;1265;-68
2022/12/04 09:01:11;;;;;;;;;;;20.40;58.10;;;;;;5067226;28;1910;-69
2022/12/04 09:03:36;;;;;;;;;;;20.40;58.20;;;;;;5034573;28;990;-69
2022/12/04 09:06:03;;;;;;;;;;;20.40;58.20;;;;;;5042814;28;927;-69
2022/12/04 09:08:28;;;;;;;;;;;20.40;58.30;;;;;;5052317;28;1219;-68
2022/12/04 09:10:54;;;;;;;;;;;20.40;58.40;;;;;;5067599;28;990;-69
2022/12/04 09:13:19;;;;;;;;;;;20.40;58.40;;;;;;5056611;28;804;-69
2022/12/04 09:15:45;;;;;;;;;;;20.40;58.40;;;;;;5062297;28;1010;-69
2022/12/04 09:18:10;;;;;;;;;;;20.40;58.40;;;;;;5066313;28;852;-69
2022/12/04 09:20:36;;;;;;;;;;;20.40;58.50;;;;;;5042618;28;1191;-69
2022/12/04 09:23:01;;;;;;;;;;;20.40;58.50;;;;;;5045034;28;1902;-68
2022/12/04 09:25:27;;;;;;;;;;;20.40;58.60;;;;;;5043911;28;882;-69
2022/12/04 09:27:52;;;;;;;;;;;20.40;58.60;;;;;;5061689;28;844;-69
2022/12/04 09:30:18;;;;;;;;;;;20.40;58.60;;;;;;5061334;28;1268;-68
2022/12/04 09:32:43;;;;;;;;;;;20.30;58.70;;;;;;5062941;28;1171;-68
2022/12/04 09:35:09;;;;;;;;;;;20.30;58.80;;;;;;5058972;28;942;-68
2022/12/04 09:37:37;;;;;;;;;;;20.30;58.80;;;;;;5050894;28;1183;-68
2022/12/04 09:40:06;;;;;;;;;;;20.30;58.80;;;;;;5061169;28;1258;-69
2022/12/04 09:42:35;;;;;;;;;;;20.30;58.80;;;;;;5051201;28;1906;-68
2022/12/04 09:45:00;;;;;;;;;;;20.30;59.00;;;;;;5060081;28;939;-68
2022/12/04 09:47:30;;;;;;;;;;;20.30;59.00;;;;;;5061309;28;910;-69
2022/12/04 09:49:57;;;;;;;;;;;20.30;58.90;;;;;;5041758;28;1318;-68
2022/12/04 09:52:41;;;;;;;;;;;20.30;59.00;;;;;;5059893;28;1014;-69
2022/12/04 09:55:10;;;;;;;;;;;20.30;59.10;;;;;;5059136;28;959;-69
2022/12/04 09:57:42;;;;;;;;;;;20.30;59.10;;;;;;5039685;28;830;-69
2022/12/04 10:00:12;;;;;;;;;;;20.30;59.20;;;;;;5041953;28;1632;-69
2022/12/04 10:02:38;;;;;;;;;;;20.30;59.10;;;;;;5060315;28;1965;-68
2022/12/04 10:05:04;;;;;;;;;;;20.30;59.20;;;;;;5045834;28;833;-69
2022/12/04 10:07:38;;;;;;;;;;;20.30;59.20;;;;;;5041760;28;2218;-70
2022/12/04 10:10:07;;;;;;;;;;;20.30;59.20;;;;;;5059343;28;1449;-69
2022/12/04 10:12:35;;;;;;;;;;;20.30;59.20;;;;;;5061792;28;1432;-70
2022/12/04 10:15:19;;;;;;;;;;;20.20;59.20;;;;;;5061012;28;1384;-70
2022/12/04 10:17:59;;;;;;;;;;;20.20;59.20;;;;;;5057365;28;863;-69
2022/12/04 10:20:44;;;;;;;;;;;20.20;59.30;;;;;;5060276;28;1272;-69
2022/12/04 10:23:12;;;;;;;;;;;20.20;59.30;;;;;;5060279;28;1973;-70
2022/12/04 10:25:38;;;;;;;;;;;20.20;59.30;;;;;;5055499;28;927;-69
2022/12/04 10:28:15;;;;;;;;;;;20.20;59.40;;;;;;5051154;28;856;-69
2022/12/04 10:30:41;;;;;;;;;;;20.20;59.50;;;;;;5056896;28;2264;-69
2022/12/04 10:33:15;;;;;;;;;;;20.20;59.70;;;;;;5060573;28;2135;-69
2022/12/04 10:35:41;;;;;;;;;;;20.20;59.60;;;;;;5042805;28;1842;-70
2022/12/04 10:38:11;;;;;;;;;;;20.20;59.70;;;;;;5043945;28;1368;-70
2022/12/04 10:40:39;;;;;;;;;;;20.20;59.70;;;;;;5045362;28;1360;-70
2022/12/04 10:43:14;;;;;;;;;;;20.20;59.70;;;;;;5026587;28;1902;-70
2022/12/04 10:45:40;;;;;;;;;;;20.20;59.70;;;;;;5038454;28;1542;-69
2022/12/04 10:48:06;;;;;;;;;;;20.20;59.70;;;;;;5038544;28;1044;-69
2022/12/04 10:50:32;;;;;;;;;;;20.20;59.80;;;;;;5048988;28;1391;-70
2022/12/04 10:52:57;;;;;;;;;;;20.20;59.70;;;;;;5042269;28;930;-69
2022/12/04 10:55:29;;;;;;;;;;;20.20;59.70;;;;;;5060307;28;868;-69
2022/12/04 10:57:55;;;;;;;;;;;20.20;59.80;;;;;;5060201;28;808;-70
2022/12/04 11:00:26;;;;;;;;;;;20.20;59.80;;;;;;5059106;28;1337;-70
2022/12/04 11:02:52;;;;;;;;;;;20.20;59.80;;;;;;5060099;28;1906;-70
2022/12/04 11:05:36;;;;;;;;;;;20.20;59.90;;;;;;5039156;28;896;-70
2022/12/04 11:08:02;;;;;;;;;;;20.20;59.80;;;;;;5057747;28;967;-69
2022/12/04 11:10:35;;;;;;;;;;;20.20;59.90;;;;;;5042538;28;1248;-70
2022/12/04 11:13:04;;;;;;;;;;;20.20;60.40;;;;;;5059709;28;871;-69
2022/12/04 11:15:30;;;;;;;;;;;20.20;60.10;;;;;;5060007;28;1445;-69
2022/12/04 11:18:05;;;;;;;;;;;20.20;60.20;;;;;;5060373;28;793;-69
2022/12/04 11:20:31;;;;;;;;;;;20.10;60.20;;;;;;5041904;28;1390;-70
2022/12/04 11:22:57;;;;;;;;;;;20.20;60.10;;;;;;5043579;28;1898;-69
2022/12/04 11:25:24;;;;;;;;;;;20.20;60.00;;;;;;5038124;28;2143;-69
2022/12/04 11:27:50;;;;;;;;;;;20.30;59.90;;;;;;5046857;28;1539;-69
2022/12/04 11:30:30;;;;;;;;;;;20.30;60.00;;;;;;5043220;28;1681;-70
2022/12/04 11:32:55;;;;;;;;;;;20.30;60.00;;;;;;5058491;28;1360;-69
2022/12/04 11:35:24;;;;;;;;;;;20.20;59.90;;;;;;5059510;28;998;-70
2022/12/04 11:37:54;;;;;;;;;;;20.20;59.90;;;;;;5043399;28;1604;-69
2022/12/04 11:40:20;;;;;;;;;;;20.20;60.00;;;;;;5045195;28;1331;-70
2022/12/04 11:42:55;;;;;;;;;;;20.20;60.10;;;;;;5053200;28;1906;-69
2022/12/04 11:45:21;;;;;;;;;;;20.20;60.10;;;;;;5041328;28;892;-70
2022/12/04 11:47:56;;;;;;;;;;;20.20;60.00;;;;;;5057125;28;871;-70
2022/12/04 11:50:45;;;;;;;;;;;20.20;60.10;;;;;;5058392;28;1236;-70
2022/12/04 11:53:35;;;;;;;;;;;20.30;60.30;;;;;;5052925;28;1486;-69
2022/12/04 11:56:13;;;;;;;;;;;20.30;60.10;;;;;;5045825;28;1211;-70
2022/12/04 11:58:45;;;;;;;;;;;20.30;60.20;;;;;;5060612;28;1324;-70
2022/12/04 12:01:19;;;;;;;;;;;20.30;60.10;;;;;;5042172;28;812;-70
2022/12/04 12:03:53;;;;;;;;;;;20.20;60.10;;;;;;5039947;28;881;-69
2022/12/04 12:06:48;;;;;;;;;;;20.30;60.20;;;;;;5059269;28;982;-70
2022/12/04 12:09:17;;;;;;;;;;;20.20;60.20;;;;;;5042732;28;1251;-69
2022/12/04 12:11:49;;;;;;;;;;;20.20;60.30;;;;;;5044637;28;860;-70
2022/12/04 12:14:24;;;;;;;;;;;20.20;60.30;;;;;;5059501;28;1384;-70
2022/12/04 12:16:50;;;;;;;;;;;20.20;60.30;;;;;;5040183;28;970;-70
2022/12/04 12:19:27;;;;;;;;;;;20.20;60.30;;;;;;5059722;28;1486;-70
2022/12/04 12:22:05;;;;;;;;;;;20.30;60.30;;;;;;5056988;28;1961;-70
2022/12/04 12:24:48;;;;;;;;;;;20.20;60.30;;;;;;5061480;28;871;-70
2022/12/04 12:27:26;;;;;;;;;;;20.30;60.40;;;;;;5025747;28;1206;-69
2022/12/04 12:29:51;;;;;;;;;;;20.20;60.40;;;;;;5062860;28;1321;-70
2022/12/04 12:32:23;;;;;;;;;;;20.20;60.30;;;;;;5058256;28;844;-70
2022/12/04 12:34:48;;;;;;;;;;;20.20;60.30;;;;;;5055749;28;912;-70
2022/12/04 12:37:22;;;;;;;;;;;20.20;60.30;;;;;;5051141;28;959;-70
2022/12/04 12:40:02;;;;;;;;;;;20.20;60.20;;;;;;5057931;28;1953;-68
2022/12/04 12:42:29;;;;;;;;;;;20.20;60.40;;;;;;5043546;28;1902;-69
2022/12/04 12:44:55;;;;;;;;;;;20.20;60.20;;;;;;5042376;28;1234;-69
2022/12/04 12:47:22;;;;;;;;;;;20.20;60.30;;;;;;5056085;28;778;-69
2022/12/04 12:49:56;;;;;;;;;;;20.20;60.30;;;;;;5041760;28;1289;-69
2022/12/04 12:52:37;;;;;;;;;;;20.20;60.30;;;;;;5049770;28;995;-68
2022/12/04 12:55:21;;;;;;;;;;;20.20;60.40;;;;;;5058326;28;849;-69
2022/12/04 12:57:48;;;;;;;;;;;20.20;60.50;;;;;;5058821;28;887;-69
2022/12/04 13:00:20;;;;;;;;;;;20.20;60.70;;;;;;5051237;28;1292;-69
2022/12/04 13:02:47;;;;;;;;;;;20.10;61.50;;;;;;5049029;28;1914;-67
2022/12/04 13:05:13;;;;;;;;;;;20.20;61.30;;;;;;5046594;28;872;-68
2022/12/04 13:07:57;;;;;;;;;;;20.10;55.00;;;;;;5049992;28;796;-68
2022/12/04 13:10:24;;;;;;;;;;;20.10;52.90;;;;;;5062880;28;1271;-68
2022/12/04 13:12:51;;;;;;;;;;;20.00;50.80;;;;;;5053823;28;1304;-68
2022/12/04 13:15:17;;;;;;;;;;;19.90;49.40;;;;;;5049263;28;801;-68
2022/12/04 13:17:43;;;;;;;;;;;19.80;48.50;;;;;;5057736;28;840;-68
2022/12/04 13:20:13;;;;;;;;;;;19.70;47.80;;;;;;5053025;28;1279;-67
2022/12/04 13:23:11;;;;;;;;;;;19.60;47.30;;;;;;5045628;28;1910;-68
2022/12/04 13:25:45;;;;;;;;;;;19.60;47.00;;;;;;5030626;28;1450;-67
2022/12/04 13:28:35;;;;;;;;;;;19.50;46.50;;;;;;5073787;28;808;-67
2022/12/04 13:31:10;;;;;;;;;;;19.40;46.00;;;;;;5033804;28;1189;-67
2022/12/04 13:33:49;;;;;;;;;;;19.40;45.50;;;;;;5040700;28;1029;-67
2022/12/04 13:36:17;;;;;;;;;;;19.30;44.60;;;;;;5055769;28;1326;-68
2022/12/04 13:39:21;;;;;;;;;;;19.20;44.30;;;;;;5048152;28;1475;-67
2022/12/04 13:41:54;;;;;;;;;;;19.20;44.10;;;;;;5026004;28;1963;-68
2022/12/04 13:44:20;;;;;;;;;;;19.20;43.80;;;;;;5011558;28;941;-68
2022/12/04 13:46:51;;;;;;;;;;;19.10;43.90;;;;;;5039524;28;1611;-68
2022/12/04 13:49:16;;;;;;;;;;;19.10;43.80;;;;;;5060236;28;1269;-68
2022/12/04 13:51:45;;;;;;;;;;;19.10;43.60;;;;;;5060519;28;1983;-68
2022/12/04 13:54:11;;;;;;;;;;;19.10;43.40;;;;;;5040369;28;1291;-67
2022/12/04 13:56:36;;;;;;;;;;;19.00;43.10;;;;;;5058411;28;1368;-68
2022/12/04 13:59:25;;;;;;;;;;;19.00;43.10;;;;;;5042664;28;1378;-68
2022/12/04 14:01:51;;;;;;;;;;;19.00;42.90;;;;;;5048976;28;1906;-69
2022/12/04 14:04:26;;;;;;;;;;;19.00;42.80;;;;;;5063743;28;919;-69
2022/12/04 14:06:52;;;;;;;;;;;18.90;42.70;;;;;;5056770;28;804;-69
2022/12/04 14:09:21;;;;;;;;;;;18.90;42.70;;;;;;5057094;28;1279;-67
2022/12/04 14:11:47;;;;;;;;;;;18.90;42.60;;;;;;5050814;28;851;-67
2022/12/04 14:14:21;;;;;;;;;;;18.90;42.40;;;;;;5043045;28;1343;-68
2022/12/04 14:16:47;;;;;;;;;;;18.80;42.30;;;;;;5041156;28;892;-68
2022/12/04 14:19:23;;;;;;;;;;;18.80;42.40;;;;;;5057729;28;1287;-68
2022/12/04 14:21:49;;;;;;;;;;;18.80;42.30;;;;;;5058304;28;1902;-68
2022/12/04 14:24:26;;;;;;;;;;;18.80;42.30;;;;;;5058496;28;855;-68
2022/12/04 14:26:52;;;;;;;;;;;18.70;42.20;;;;;;5050442;28;898;-68
2022/12/04 14:29:27;;;;;;;;;;;18.70;42.20;;;;;;5037978;28;1334;-69
2022/12/04 14:31:52;;;;;;;;;;;18.70;42.10;;;;;;5059971;28;760;-69
2022/12/04 14:34:30;;;;;;;;;;;18.70;42.00;;;;;;5039837;28;1014;-69
2022/12/04 14:36:56;;;;;;;;;;;18.70;42.00;;;;;;5044083;28;778;-68
2022/12/04 14:39:25;;;;;;;;;;;18.60;41.90;;;;;;5061070;28;2148;-68
2022/12/04 14:41:51;;;;;;;;;;;18.60;41.90;;;;;;5042614;28;2049;-68
2022/12/04 14:44:20;;;;;;;;;;;18.60;41.90;;;;;;5029282;28;1376;-69
2022/12/04 14:46:47;;;;;;;;;;;18.60;41.80;;;;;;5050363;28;850;-68
2022/12/04 14:49:15;;;;;;;;;;;18.50;41.70;;;;;;5058654;28;1366;-68
2022/12/04 14:51:44;;;;;;;;;;;18.50;42.10;;;;;;5057142;28;871;-68
2022/12/04 14:54:21;;;;;;;;;;;18.50;41.60;;;;;;5060605;28;852;-69